Time;durP1;ratioP1;P1;durP2;ratioP2;P2;SDS_P1;SDS_P2;PMS_P1;PMS_P2;Temp;Humidity;BMP_temperature;BMP_pressure;BME280_temperature;BME280_humidity;BME280_pressure;Samples;Min_cycle;Max_cycle;Signal;HPM_P1;HPM_P2
2022/08/05 00:00:14;;;;;;;5.47;3.63;;;;;;;20.59;97.09;100601.06;6017893;28;20041;-65
2022/08/05 00:03:09;;;;;;;10.85;3.50;;;;;;;20.68;96.60;100591.72;6025416;28;20034;-65
2022/08/05 00:06:04;;;;;;;7.23;3.43;;;;;;;20.70;97.62;100619.25;6023483;28;20106;-65
2022/08/05 00:09:00;;;;;;;7.70;3.60;;;;;;;20.60;97.02;100613.50;6022502;28;20026;-65
2022/08/05 00:11:55;;;;;;;8.45;4.18;;;;;;;20.24;97.60;100602.41;6023945;28;20104;-64
2022/08/05 00:14:51;;;;;;;7.00;3.70;;;;;;;20.04;98.19;100623.97;6023798;28;20043;-64
2022/08/05 00:17:46;;;;;;;7.93;3.53;;;;;;;19.99;98.67;100630.00;6024756;28;20030;-65
2022/08/05 00:20:41;;;;;;;7.03;4.07;;;;;;;19.95;99.26;100641.38;6021556;28;20034;-64
2022/08/05 00:23:37;;;;;;;7.20;3.73;;;;;;;19.93;99.11;100655.06;6024579;28;20037;-64
2022/08/05 00:26:33;;;;;;;8.93;3.92;;;;;;;19.82;99.56;100639.53;6019877;28;20057;-64
2022/08/05 00:29:28;;;;;;;13.30;4.40;;;;;;;19.64;100.00;100636.66;6023752;28;20476;-64
2022/08/05 00:32:23;;;;;;;11.27;4.37;;;;;;;19.70;100.00;100622.38;6022536;28;20074;-64
2022/08/05 00:35:19;;;;;;;10.03;3.70;;;;;;;20.20;100.00;100635.13;6023416;28;20317;-64
2022/08/05 00:38:14;;;;;;;6.50;3.33;;;;;;;20.04;100.00;100658.97;6024375;28;20298;-64
2022/08/05 00:41:09;;;;;;;7.37;3.67;;;;;;;20.18;100.00;100658.78;6022557;28;20046;-64
2022/08/05 00:44:05;;;;;;;8.57;4.07;;;;;;;19.98;100.00;100698.34;6023557;28;20030;-64
2022/08/05 00:47:01;;;;;;;7.63;3.93;;;;;;;20.13;100.00;100706.22;6023725;28;20293;-64
2022/08/05 00:49:57;;;;;;;8.60;4.03;;;;;;;20.22;100.00;100698.75;6022987;28;20297;-64
2022/08/05 00:52:52;;;;;;;9.37;3.70;;;;;;;19.85;100.00;100714.50;6023072;28;20041;-64
2022/08/05 00:55:48;;;;;;;7.53;3.50;;;;;;;19.58;100.00;100721.72;6023223;28;20038;-64
2022/08/05 00:58:44;;;;;;;6.75;3.50;;;;;;;19.35;100.00;100715.00;6023155;28;20362;-63
2022/08/05 01:01:39;;;;;;;9.10;3.88;;;;;;;19.24;100.00;100712.91;6021076;28;20038;-64
2022/08/05 01:04:34;;;;;;;12.27;3.80;;;;;;;19.40;100.00;100728.69;6023078;28;20034;-63
2022/08/05 01:07:29;;;;;;;10.37;4.80;;;;;;;19.31;100.00;100714.56;6023588;28;20026;-64
2022/08/05 01:10:35;;;;;;;8.93;4.27;;;;;;;19.19;100.00;100720.72;6021867;28;20520;-64
2022/08/05 01:13:56;;;;;;;9.48;4.25;;;;;;;19.11;100.00;100702.91;6031663;28;20488;-64
2022/08/05 01:17:30;;;;;;;9.80;3.50;;;;;;;19.30;100.00;100696.78;6022652;28;20038;-64
2022/08/05 01:20:44;;;;;;;9.65;3.97;;;;;;;19.10;100.00;100690.53;6021504;28;20054;-64
2022/08/05 01:24:07;;;;;;;11.20;4.38;;;;;;;19.05;100.00;100684.09;6019693;28;20039;-64
2022/08/05 01:27:48;;;;;;;9.77;4.35;;;;;;;18.93;100.00;100684.66;6021541;28;20026;-64
2022/08/05 01:30:50;;;;;;;8.65;4.68;;;;;;;18.76;100.00;100667.22;6009858;28;20077;-64
2022/08/05 01:34:06;;;;;;;12.23;4.47;;;;;;;18.69;100.00;100685.19;6021958;28;20041;-64
2022/08/05 01:37:06;;;;;;;9.57;4.68;;;;;;;18.63;100.00;100672.53;6025852;28;20042;-63
2022/08/05 01:40:04;;;;;;;8.93;5.13;;;;;;;18.53;100.00;100679.31;6019689;28;20077;-64
2022/08/05 01:43:01;;;;;;;12.15;5.35;;;;;;;18.47;100.00;100664.78;6038334;28;20034;-64
2022/08/05 01:45:56;;;;;;;10.23;4.97;;;;;;;18.36;100.00;100671.53;6020778;28;20026;-64
2022/08/05 01:48:53;;;;;;;13.82;5.35;;;;;;;18.32;100.00;100675.63;6022692;28;20457;-64
2022/08/05 01:51:49;;;;;;;10.45;5.05;;;;;;;18.32;100.00;100675.63;6019974;28;20042;-64
2022/08/05 01:54:48;;;;;;;11.88;5.90;;;;;;;18.29;100.00;100685.97;6037192;28;20096;-64
2022/08/05 01:57:45;;;;;;;14.23;5.28;;;;;;;18.17;100.00;100671.41;6036639;28;20501;-64
2022/08/05 02:00:44;;;;;;;13.93;5.57;;;;;;;18.11;100.00;100678.38;6019851;28;20110;-64
2022/08/05 02:03:44;;;;;;;17.98;5.53;;;;;;;18.10;100.00;100682.09;6021624;28;20084;-64
2022/08/05 02:06:39;;;;;;;12.23;5.43;;;;;;;18.03;100.00;100680.38;6021302;28;20054;-64
2022/08/05 02:09:34;;;;;;;12.18;7.03;;;;;;;18.01;100.00;100671.72;6020353;28;20437;-64
2022/08/05 02:12:45;;;;;;;14.23;6.30;;;;;;;18.01;100.00;100677.91;6020246;28;20045;-64
2022/08/05 02:15:44;;;;;;;14.90;7.43;;;;;;;18.02;100.00;100684.13;6021256;28;20135;-64
2022/08/05 02:18:44;;;;;;;17.02;6.40;;;;;;;18.14;100.00;100690.59;6032021;28;20394;-65
2022/08/05 02:21:45;;;;;;;11.98;5.90;;;;;;;18.09;100.00;100684.97;6019481;28;20121;-65
2022/08/05 02:24:45;;;;;;;17.85;6.88;;;;;;;18.33;100.00;100681.84;6036058;28;20070;-64
2022/08/05 02:27:41;;;;;;;14.00;6.25;;;;;;;18.48;100.00;100663.78;6019820;28;20077;-64
2022/08/05 02:30:49;;;;;;;12.38;6.07;;;;;;;19.12;100.00;100645.44;6011221;28;20054;-65
2022/08/05 02:33:51;;;;;;;12.63;5.60;;;;;;;19.02;98.30;100671.88;6036168;28;20112;-64
2022/08/05 02:36:53;;;;;;;12.07;4.95;;;;;;;18.72;98.69;100684.78;6020082;28;20675;-65
2022/08/05 02:39:49;;;;;;;13.60;5.82;;;;;;;18.80;100.00;100690.00;6016431;28;20030;-65
2022/08/05 02:42:46;;;;;;;12.35;5.43;;;;;;;18.77;100.00;100694.94;6019480;28;20070;-64
2022/08/05 02:45:41;;;;;;;17.20;5.45;;;;;;;19.07;99.94;100700.84;6021946;28;20113;-64
2022/08/05 02:48:37;;;;;;;14.55;6.10;;;;;;;19.05;98.04;100697.53;6020999;28;20038;-65
2022/08/05 02:51:34;;;;;;;18.73;5.70;;;;;;;19.54;96.75;100685.47;6020114;28;20085;-65
2022/08/05 02:54:30;;;;;;;12.82;5.30;;;;;;;19.50;95.11;100660.03;6021328;28;20363;-64
2022/08/05 02:57:25;;;;;;;12.52;5.72;;;;;;;19.30;94.92;100647.53;6022603;28;20434;-65
2022/08/05 03:00:21;;;;;;;13.52;5.97;;;;;;;19.25;94.09;100666.13;6023547;28;20186;-65
2022/08/05 03:03:18;;;;;;;13.97;6.27;;;;;;;19.10;94.31;100701.28;6025702;28;20034;-65
2022/08/05 03:06:14;;;;;;;14.32;6.35;;;;;;;18.70;96.57;100745.94;6025201;28;20332;-64
2022/08/05 03:09:11;;;;;;;18.38;7.55;;;;;;;18.49;98.96;100696.84;6033784;28;20474;-63
2022/08/05 03:12:07;;;;;;;22.83;8.13;;;;;;;18.77;100.00;100706.50;6018204;28;20038;-64
2022/08/05 03:15:07;;;;;;;15.50;7.38;;;;;;;18.67;100.00;100673.78;6026300;28;20116;-64
2022/08/05 03:18:02;;;;;;;17.55;7.55;;;;;;;18.79;100.00;100661.44;6021962;28;20065;-64
2022/08/05 03:20:57;;;;;;;17.83;8.57;;;;;;;18.67;100.00;100652.28;6024775;28;20038;-63
2022/08/05 03:23:53;;;;;;;16.87;8.40;;;;;;;18.54;100.00;100646.88;6023404;28;20347;-63
2022/08/05 03:26:48;;;;;;;20.65;8.38;;;;;;;18.42;100.00;100637.69;6040118;28;20049;-63
2022/08/05 03:29:44;;;;;;;17.17;8.83;;;;;;;18.41;100.00;100657.50;6025792;28;20605;-64
2022/08/05 03:32:40;;;;;;;21.95;9.32;;;;;;;18.28;100.00;100700.41;6024232;28;20540;-63
2022/08/05 03:35:35;;;;;;;25.20;9.02;;;;;;;18.21;100.00;100684.22;6025229;28;20038;-64
2022/08/05 03:38:30;;;;;;;25.80;10.75;;;;;;;18.15;100.00;100666.25;6024111;28;20062;-64
2022/08/05 03:41:26;;;;;;;20.80;10.20;;;;;;;18.12;100.00;100674.69;6024205;28;20140;-63
2022/08/05 03:44:21;;;;;;;22.77;11.00;;;;;;;18.01;100.00;100663.66;6023185;28;20457;-63
2022/08/05 03:47:16;;;;;;;19.73;10.03;;;;;;;18.01;100.00;100690.50;6024644;28;20474;-63
2022/08/05 03:50:12;;;;;;;28.33;10.30;;;;;;;17.97;100.00;100665.06;6025068;28;20058;-63
2022/08/05 03:53:11;;;;;;;28.90;11.40;;;;;;;18.04;100.00;100668.63;6023715;28;20041;-62
2022/08/05 03:56:13;;;;;;;23.65;10.50;;;;;;;18.01;100.00;100656.44;6024451;28;20042;-63
2022/08/05 03:59:13;;;;;;;21.92;10.60;;;;;;;18.20;100.00;100650.38;6024377;28;20035;-63
2022/08/05 04:02:10;;;;;;;21.70;9.70;;;;;;;18.07;100.00;100649.47;6019993;28;20389;-63
2022/08/05 04:05:07;;;;;;;25.35;9.00;;;;;;;18.03;nan;100669.66;6023658;28;20026;-63
2022/08/05 04:08:05;;;;;;;19.65;8.55;;;;;;;18.17;100.00;100677.59;6022070;28;20769;-63
2022/08/05 04:11:01;;;;;;;16.48;8.48;;;;;;;18.24;100.00;100685.69;6023644;28;20088;-63
2022/08/05 04:13:57;;;;;;;16.95;8.68;;;;;;;18.25;100.00;100693.56;6023094;28;20100;-63
2022/08/05 04:16:54;;;;;;;19.08;8.80;;;;;;;18.12;100.00;100663.13;6036426;28;20425;-64
2022/08/05 04:19:49;;;;;;;21.23;8.85;;;;;;;18.15;100.00;100646.63;6030111;28;20031;-63
2022/08/05 04:22:45;;;;;;;17.65;8.25;;;;;;;18.09;100.00;100658.13;6022998;28;20054;-63
2022/08/05 04:25:40;;;;;;;20.33;8.35;;;;;;;18.19;100.00;100654.06;6023586;28;20034;-63
2022/08/05 04:28:36;;;;;;;14.40;7.27;;;;;;;18.33;100.00;100660.34;6022185;28;20249;-62
2022/08/05 04:31:31;;;;;;;15.17;7.27;;;;;;;18.42;100.00;100645.75;6022932;28;20092;-63
2022/08/05 04:34:26;;;;;;;16.70;7.97;;;;;;;18.30;100.00;100636.59;6024259;28;20045;-63
2022/08/05 04:37:21;;;;;;;18.43;7.13;;;;;;;18.67;100.00;100614.69;6023132;28;20038;-63
2022/08/05 04:40:17;;;;;;;12.50;6.87;;;;;;;18.88;100.00;100625.31;6023417;28;20065;-63
2022/08/05 04:43:12;;;;;;;15.43;7.03;;;;;;;18.86;100.00;100632.72;6018197;28;20045;-63
2022/08/05 04:46:07;;;;;;;11.90;6.03;;;;;;;18.65;100.00;100632.88;6022745;28;20034;-63
2022/08/05 04:49:03;;;;;;;10.03;5.77;;;;;;;18.66;100.00;100642.59;6022787;28;20037;-63
2022/08/05 04:51:58;;;;;;;13.85;6.78;;;;;;;18.49;100.00;100648.50;6022361;28;21139;-63
2022/08/05 04:54:54;;;;;;;10.80;5.63;;;;;;;18.22;100.00;100647.47;6023646;28;20524;-63
2022/08/05 04:57:50;;;;;;;14.45;6.28;;;;;;;18.21;100.00;100640.44;6023112;28;20297;-64
2022/08/05 05:00:45;;;;;;;15.13;7.33;;;;;;;18.08;100.00;100664.53;6022903;28;20038;-63
2022/08/05 05:03:40;;;;;;;16.00;8.10;;;;;;;18.04;100.00;100676.69;6022717;28;20644;-62
2022/08/05 05:06:36;;;;;;;18.03;7.90;;;;;;;18.03;100.00;100670.47;6021387;28;20665;-62
2022/08/05 05:09:31;;;;;;;21.33;8.98;;;;;;;18.08;100.00;100673.41;6021932;28;20289;-63
2022/08/05 05:12:27;;;;;;;17.73;8.33;;;;;;;18.02;100.00;100665.31;6021998;28;20069;-62
2022/08/05 05:15:25;;;;;;;16.63;8.90;;;;;;;18.04;100.00;100674.00;6022821;28;20477;-63
2022/08/05 05:18:20;;;;;;;17.73;8.40;;;;;;;17.97;100.00;100678.47;6023015;28;20042;-63
2022/08/05 05:21:16;;;;;;;22.92;10.15;;;;;;;18.10;100.00;100700.06;6022143;28;20027;-63
2022/08/05 05:24:12;;;;;;;23.50;10.20;;;;;;;18.11;100.00;100701.72;6022316;28;20040;-63
2022/08/05 05:27:08;;;;;;;23.95;9.40;;;;;;;18.20;100.00;100697.88;6022504;28;20069;-63
2022/08/05 05:30:04;;;;;;;21.73;10.07;;;;;;;18.31;100.00;100705.38;6022769;28;20046;-63
2022/08/05 05:33:01;;;;;;;21.75;9.23;;;;;;;18.23;100.00;100703.69;6021399;28;20034;-63
2022/08/05 05:35:56;;;;;;;18.10;9.30;;;;;;;18.23;100.00;100708.22;6022287;28;20038;-64
2022/08/05 05:38:52;;;;;;;23.33;9.23;;;;;;;18.30;100.00;100709.06;6022932;28;20680;-63
2022/08/05 05:41:47;;;;;;;20.47;9.53;;;;;;;18.46;100.00;100727.56;6022483;28;20026;-64
2022/08/05 05:44:42;;;;;;;18.67;9.07;;;;;;;18.54;100.00;100732.81;6022779;28;20454;-63
2022/08/05 05:47:39;;;;;;;19.70;9.57;;;;;;;18.71;100.00;100709.16;6022700;28;20053;-63
2022/08/05 05:50:35;;;;;;;20.98;8.30;;;;;;;18.70;100.00;100713.69;6022167;28;20517;-63
2022/08/05 05:53:30;;;;;;;18.15;8.52;;;;;;;18.74;100.00;100701.53;6022490;28;20050;-63
2022/08/05 05:56:27;;;;;;;17.73;8.50;;;;;;;18.71;100.00;100701.94;6020266;28;20174;-63
2022/08/05 05:59:23;;;;;;;16.02;8.32;;;;;;;19.11;100.00;100707.47;6019863;28;20489;-63
2022/08/05 06:02:18;;;;;;;17.75;7.03;;;;;;;19.59;100.00;100692.94;6021876;28;20046;-63
2022/08/05 06:05:14;;;;;;;15.63;6.63;;;;;;;20.58;96.80;100717.97;6021577;28;20058;-63
2022/08/05 06:08:10;;;;;;;16.50;7.25;;;;;;;20.66;92.95;100726.66;6021762;28;20266;-63
2022/08/05 06:11:05;;;;;;;14.47;7.70;;;;;;;20.39;92.36;100729.63;6021771;28;20472;-63
2022/08/05 06:14:00;;;;;;;15.53;6.97;;;;;;;20.35;93.62;100731.91;6020970;28;20035;-63
2022/08/05 06:16:56;;;;;;;16.80;7.28;;;;;;;20.27;92.51;100747.47;6021464;28;20340;-63
2022/08/05 06:19:51;;;;;;;20.98;7.22;;;;;;;20.11;93.00;100738.72;6019761;28;20041;-63
2022/08/05 06:22:46;;;;;;;14.03;7.53;;;;;;;19.75;93.96;100770.59;6021313;28;20041;-63
2022/08/05 06:25:42;;;;;;;19.33;8.30;;;;;;;19.66;95.10;100782.56;6021400;28;20289;-63
2022/08/05 06:28:37;;;;;;;19.37;7.93;;;;;;;19.58;94.10;100823.94;6019869;28;20088;-63
2022/08/05 06:31:32;;;;;;;20.00;7.67;;;;;;;19.24;96.66;100852.75;6016153;28;20049;-63
2022/08/05 06:34:28;;;;;;;18.07;8.37;;;;;;;19.18;97.74;100878.56;6015578;28;20046;-63
2022/08/05 06:37:25;;;;;;;18.40;9.30;;;;;;;18.88;98.91;100879.81;6019769;28;20038;-63
2022/08/05 06:40:20;;;;;;;18.25;8.63;;;;;;;18.83;100.00;100877.69;6018563;28;20382;-62
2022/08/05 06:43:15;;;;;;;25.77;9.40;;;;;;;18.61;100.00;100870.72;6020292;28;20042;-63
2022/08/05 06:46:11;;;;;;;24.33;10.47;;;;;;;18.43;100.00;100864.91;6014225;28;20038;-63
2022/08/05 06:49:06;;;;;;;30.95;10.60;;;;;;;18.35;100.00;100865.91;6022038;28;20093;-63
2022/08/05 06:52:01;;;;;;;28.70;11.27;;;;;;;18.35;100.00;100857.84;6010614;28;20053;-64
2022/08/05 06:54:57;;;;;;;21.00;10.27;;;;;;;18.38;100.00;100829.75;6016050;28;20529;-63
2022/08/05 06:57:52;;;;;;;23.13;10.63;;;;;;;18.16;100.00;100836.16;6017753;28;20030;-63
2022/08/05 07:00:47;;;;;;;24.80;10.53;;;;;;;18.07;100.00;100815.88;6015434;28;21232;-64
2022/08/05 07:03:43;;;;;;;28.33;11.00;;;;;;;18.30;100.00;100778.88;6020960;28;20636;-64
2022/08/05 07:06:38;;;;;;;22.67;10.37;;;;;;;18.10;100.00;100777.91;6017474;28;20045;-63
2022/08/05 07:09:33;;;;;;;18.93;9.77;;;;;;;18.19;100.00;100763.31;6009409;28;20133;-63
2022/08/05 07:18:56;;;;;;;15.15;8.35;;;;;;;18.43;100.00;100719.91;6012733;28;20521;-63
2022/08/05 07:21:51;;;;;;;14.52;7.72;;;;;;;18.46;100.00;100719.50;6020262;28;20034;-63
2022/08/05 07:24:47;;;;;;;18.00;8.25;;;;;;;18.52;100.00;100708.03;6014662;28;20130;-62
2022/08/05 07:27:42;;;;;;;19.83;8.90;;;;;;;18.39;100.00;100708.75;6017787;28;20117;-63
2022/08/05 07:30:39;;;;;;;17.27;8.17;;;;;;;18.26;100.00;100721.25;6016837;28;20532;-63
2022/08/05 07:33:34;;;;;;;18.40;8.85;;;;;;;18.57;100.00;100713.63;6017069;28;20343;-62
2022/08/05 07:36:32;;;;;;;13.63;7.43;;;;;;;18.90;100.00;100698.50;6014860;28;20046;-62
2022/08/05 07:39:27;;;;;;;14.48;6.88;;;;;;;18.67;100.00;100705.22;6024021;28;20034;-62
2022/08/05 07:42:22;;;;;;;15.23;7.67;;;;;;;18.60;100.00;100718.59;6019006;28;20045;-62
2022/08/05 07:45:19;;;;;;;13.63;6.80;;;;;;;18.60;100.00;100707.84;6026276;28;20030;-63
2022/08/05 07:48:14;;;;;;;14.85;7.72;;;;;;;18.67;100.00;100697.97;6011924;28;20146;-63
2022/08/05 07:51:10;;;;;;;15.30;7.97;;;;;;;18.90;100.00;100694.97;6023046;28;20079;-63
2022/08/05 07:54:05;;;;;;;16.67;8.20;;;;;;;19.00;100.00;100690.88;6022696;28;20597;-62
2022/08/05 07:57:01;;;;;;;18.03;7.67;;;;;;;19.30;100.00;100701.31;6025617;28;20284;-62
2022/08/05 07:59:56;;;;;;;14.65;7.38;;;;;;;19.45;100.00;100694.78;6018189;28;20521;-62
2022/08/05 08:02:52;;;;;;;14.30;6.73;;;;;;;19.40;100.00;100707.19;6021513;28;20731;-62
2022/08/05 08:05:50;;;;;;;13.33;6.83;;;;;;;19.51;100.00;100720.84;6016862;28;20034;-62
2022/08/05 08:08:45;;;;;;;13.30;7.10;;;;;;;19.56;100.00;100749.84;6025181;28;20266;-62
2022/08/05 08:11:40;;;;;;;13.60;5.87;;;;;;;19.38;100.00;100736.13;6019234;28;20090;-62
2022/08/05 08:14:35;;;;;;;8.70;4.83;;;;;;;19.49;100.00;100735.53;6024875;28;20022;-62
2022/08/05 08:17:31;;;;;;;9.23;4.63;;;;;;;19.55;100.00;100715.91;6020722;28;20304;-63
2022/08/05 08:20:27;;;;;;;9.80;5.15;;;;;;;19.53;99.47;100747.56;6023663;28;20109;-62
2022/08/05 08:23:22;;;;;;;8.43;4.67;;;;;;;19.29;99.64;100740.00;6024048;28;20471;-63
2022/08/05 08:26:17;;;;;;;7.47;4.23;;;;;;;19.20;99.78;100727.78;6022447;28;20712;-62
2022/08/05 08:29:12;;;;;;;7.47;3.70;;;;;;;19.26;99.76;100743.09;6023930;28;20035;-63
2022/08/05 08:32:08;;;;;;;7.50;4.30;;;;;;;19.38;100.00;100728.06;6018839;28;20042;-62
2022/08/05 08:35:04;;;;;;;11.30;4.17;;;;;;;19.12;98.35;100754.84;6022922;28;20466;-62
2022/08/05 08:37:59;;;;;;;6.35;3.75;;;;;;;19.25;99.28;100762.94;6018060;28;20648;-62
2022/08/05 08:40:55;;;;;;;6.77;3.50;;;;;;;19.67;99.61;100760.03;6020314;28;20073;-63
2022/08/05 08:43:51;;;;;;;6.07;3.30;;;;;;;19.18;98.00;100780.94;6024026;28;20041;-62
2022/08/05 08:46:47;;;;;;;6.57;3.80;;;;;;;18.75;98.71;100783.78;6023999;28;20038;-62
2022/08/05 08:49:44;;;;;;;5.55;3.03;;;;;;;18.54;99.22;100781.16;6032948;28;20038;-62
2022/08/05 08:52:40;;;;;;;5.00;3.17;;;;;;;18.77;100.00;100748.66;6019651;28;20041;-62
2022/08/05 08:55:37;;;;;;;5.32;3.28;;;;;;;18.94;99.58;100772.31;6038048;28;20034;-62
2022/08/05 08:58:32;;;;;;;6.72;2.65;;;;;;;18.85;99.77;100783.44;6016965;28;20030;-63
2022/08/05 09:01:28;;;;;;;5.20;3.03;;;;;;;19.00;100.00;100798.41;6017961;28;20034;-62
2022/08/05 09:04:23;;;;;;;4.10;2.60;;;;;;;19.20;98.75;100797.69;6016948;28;20113;-63
2022/08/05 09:07:18;;;;;;;5.13;3.00;;;;;;;19.06;97.96;100804.84;6017015;28;20281;-62
2022/08/05 09:10:14;;;;;;;5.28;3.08;;;;;;;19.37;98.09;100799.00;6019241;28;20129;-63
2022/08/05 09:13:13;;;;;;;4.63;2.60;;;;;;;19.81;96.85;100801.25;6010355;28;20057;-63
2022/08/05 09:16:10;;;;;;;6.78;2.80;;;;;;;20.12;94.26;100810.41;6017695;28;20297;-63
2022/08/05 09:19:07;;;;;;;8.00;3.03;;;;;;;20.17;93.92;100802.53;6019854;28;20786;-63
2022/08/05 09:22:02;;;;;;;4.75;3.15;;;;;;;20.13;91.88;100822.00;6019429;28;20077;-63
2022/08/05 09:25:02;;;;;;;5.25;3.30;;;;;;;19.87;92.13;100817.41;6020269;28;20529;-63
2022/08/05 09:28:08;;;;;;;7.28;4.22;;;;;;;19.83;92.19;100836.84;6018678;28;20038;-63
2022/08/05 09:31:10;;;;;;;7.90;3.75;;;;;;;19.53;93.53;100831.81;6011957;28;20117;-63
2022/08/05 09:34:08;;;;;;;8.88;4.25;;;;;;;19.29;94.76;100828.75;6017535;28;20122;-63
2022/08/05 09:37:16;;;;;;;9.57;5.22;;;;;;;19.15;95.12;100816.28;6012389;28;20038;-63
2022/08/05 09:40:35;;;;;;;9.13;5.00;;;;;;;19.16;95.30;100828.69;6016882;28;20027;-63
2022/08/05 09:43:35;;;;;;;7.93;4.88;;;;;;;18.98;95.56;100829.22;6013316;28;20069;-63
2022/08/05 09:46:32;;;;;;;9.63;4.32;;;;;;;19.02;96.32;100828.59;6018686;28;20070;-64
2022/08/05 09:49:28;;;;;;;7.10;4.10;;;;;;;18.86;95.71;100838.88;6017207;28;20038;-63
2022/08/05 09:52:34;;;;;;;8.00;4.40;;;;;;;18.88;96.34;100828.75;6015467;28;20042;-64
2022/08/05 09:55:34;;;;;;;7.13;4.00;;;;;;;18.89;95.91;100838.44;6010298;28;20429;-65
2022/08/05 09:58:30;;;;;;;8.02;3.67;;;;;;;18.99;95.06;100850.53;6013549;28;20037;-62
2022/08/05 10:01:25;;;;;;;10.00;4.90;;;;;;;18.95;95.36;100849.25;6015727;28;20030;-65
2022/08/05 10:04:33;;;;;;;7.75;4.93;;;;;;;18.85;95.65;100869.44;6017662;28;20274;-62
2022/08/05 10:08:02;;;;;;;6.80;4.47;;;;;;;18.80;95.90;100871.88;6018136;28;20035;-63
2022/08/05 10:10:58;;;;;;;8.45;4.03;;;;;;;18.77;96.47;100854.31;6003720;28;20039;-62
2022/08/05 10:13:53;;;;;;;10.23;4.32;;;;;;;18.88;97.07;100853.75;6011067;28;20466;-62
2022/08/05 10:16:49;;;;;;;8.27;4.07;;;;;;;18.83;95.75;100871.50;6020924;28;20026;-62
2022/08/05 10:19:48;;;;;;;6.88;3.83;;;;;;;19.01;95.70;100866.44;6020874;28;20109;-62
2022/08/05 10:22:43;;;;;;;7.05;3.70;;;;;;;18.97;94.69;100857.09;6018902;28;20429;-62
2022/08/05 10:25:38;;;;;;;7.07;3.45;;;;;;;19.15;94.20;100870.06;6021214;28;20077;-63
2022/08/05 10:28:35;;;;;;;8.30;3.58;;;;;;;19.08;92.89;100864.63;6016365;28;20038;-62
2022/08/05 10:31:31;;;;;;;5.22;3.30;;;;;;;19.12;92.34;100871.28;6021124;28;20042;-62
2022/08/05 10:34:26;;;;;;;5.82;3.50;;;;;;;19.14;92.31;100884.50;6011518;28;20034;-62
2022/08/05 10:37:21;;;;;;;5.70;3.50;;;;;;;19.19;92.86;100876.66;6020198;28;20065;-62
2022/08/05 10:40:43;;;;;;;10.27;3.80;;;;;;;19.29;92.57;100879.84;6017947;28;20398;-62
2022/08/05 10:43:42;;;;;;;6.05;3.88;;;;;;;19.33;92.29;100883.78;6011426;28;20034;-62
2022/08/05 10:46:46;;;;;;;6.28;3.88;;;;;;;19.38;91.16;100870.59;6036042;28;20066;-62
2022/08/05 10:50:01;;;;;;;6.03;3.80;;;;;;;19.55;90.60;100877.31;6021890;28;20038;-61
2022/08/05 10:52:56;;;;;;;7.40;4.15;;;;;;;19.66;89.95;100874.06;6010892;28;20044;-62
2022/08/05 10:56:13;;;;;;;5.07;3.83;;;;;;;19.67;88.73;100861.44;6009108;28;20034;-62
2022/08/05 10:59:08;;;;;;;7.63;4.18;;;;;;;20.04;87.67;100860.91;6015613;28;20025;-62
2022/08/05 11:02:12;;;;;;;8.52;4.35;;;;;;;20.38;87.00;100870.75;6035255;28;20034;-62
2022/08/05 11:05:08;;;;;;;7.72;4.35;;;;;;;20.42;86.23;100874.69;6022112;28;20413;-62
2022/08/05 11:08:06;;;;;;;5.95;3.95;;;;;;;20.20;85.00;100872.16;6013733;28;20058;-62
2022/08/05 11:11:30;;;;;;;7.80;4.43;;;;;;;20.00;85.98;100900.06;6018075;28;20038;-62
2022/08/05 11:14:32;;;;;;;8.07;4.97;;;;;;;19.50;87.38;100933.59;6024468;28;20050;-62
2022/08/05 11:17:33;;;;;;;9.13;4.80;;;;;;;19.13;89.59;100933.94;6016354;28;20062;-62
2022/08/05 11:20:49;;;;;;;9.00;4.28;;;;;;;19.27;89.55;100912.31;6019048;28;20053;-61
2022/08/05 11:23:52;;;;;;;7.43;4.30;;;;;;;18.98;90.71;100929.50;6022793;28;20033;-62
2022/08/05 11:26:47;;;;;;;8.00;4.03;;;;;;;18.93;90.58;100928.41;6021970;28;20042;-62
2022/08/05 11:29:43;;;;;;;7.22;3.42;;;;;;;18.98;91.10;100929.50;6015221;28;20105;-62
2022/08/05 11:32:38;;;;;;;7.47;3.20;;;;;;;18.55;90.18;100943.16;6018312;28;20061;-62
2022/08/05 11:35:55;;;;;;;9.80;3.43;;;;;;;18.44;90.37;100949.84;6020222;28;20042;-62
2022/08/05 11:38:53;;;;;;;6.57;3.08;;;;;;;18.32;89.98;100949.50;6017451;28;20429;-63
2022/08/05 11:41:51;;;;;;;7.72;2.67;;;;;;;18.24;89.11;100944.25;6021258;28;20050;-62
2022/08/05 11:44:49;;;;;;;4.65;2.60;;;;;;;18.22;87.81;100948.16;6023074;28;20056;-63
2022/08/05 11:47:44;;;;;;;5.55;2.90;;;;;;;18.27;86.63;100956.47;6018721;28;20065;-62
2022/08/05 11:50:41;;;;;;;9.82;2.55;;;;;;;18.39;86.90;100957.66;6019405;28;20038;-63
2022/08/05 11:53:36;;;;;;;5.35;2.25;;;;;;;18.47;86.69;100952.16;6023095;28;20038;-62
2022/08/05 11:56:42;;;;;;;5.97;2.33;;;;;;;18.61;86.49;100955.84;6021078;28;20105;-62
2022/08/05 11:59:38;;;;;;;5.55;2.00;;;;;;;18.86;82.87;100971.34;6015746;28;20042;-62
2022/08/05 12:02:34;;;;;;;5.78;2.10;;;;;;;18.67;83.47;100963.94;6022792;28;20045;-62
2022/08/05 12:05:29;;;;;;;5.20;2.22;;;;;;;18.31;84.29;100968.50;6020836;28;20053;-62
2022/08/05 12:08:25;;;;;;;3.73;1.80;;;;;;;18.33;84.16;100972.66;6020264;28;20034;-65
2022/08/05 12:11:30;;;;;;;6.57;2.07;;;;;;;18.40;84.64;100981.63;6024468;28;20078;-63
2022/08/05 12:14:35;;;;;;;5.57;2.33;;;;;;;18.42;83.63;100971.53;6023615;28;20038;-65
2022/08/05 12:17:34;;;;;;;5.05;1.90;;;;;;;18.31;82.65;100984.63;6020459;28;20034;-62
2022/08/05 12:20:31;;;;;;;2.35;1.45;;;;;;;18.42;83.14;100992.19;6010440;28;20086;-63
2022/08/05 12:23:27;;;;;;;3.20;1.80;;;;;;;18.65;82.99;100998.25;6015837;28;20076;-65
2022/08/05 12:26:22;;;;;;;4.23;1.93;;;;;;;18.62;82.74;101012.06;6027173;28;20393;-65
2022/08/05 12:29:19;;;;;;;5.60;1.90;;;;;;;18.53;83.90;101015.91;6019381;28;20473;-62
2022/08/05 12:32:14;;;;;;;7.68;2.58;;;;;;;18.33;86.44;101025.53;6021020;28;20030;-64
2022/08/05 12:35:10;;;;;;;8.03;2.60;;;;;;;18.29;86.85;101040.38;6032931;28;20022;-64
2022/08/05 12:38:06;;;;;;;5.10;2.78;;;;;;;18.10;88.33;101040.97;6012644;28;20086;-62
2022/08/05 12:41:01;;;;;;;5.07;2.90;;;;;;;18.08;90.03;101032.25;6015732;28;20492;-61
2022/08/05 12:43:59;;;;;;;7.00;3.33;;;;;;;18.08;90.51;101048.34;6022902;28;20265;-63
2022/08/05 12:46:54;;;;;;;5.35;3.15;;;;;;;18.37;90.22;101051.81;6010042;28;20462;-62
2022/08/05 12:49:50;;;;;;;7.10;3.67;;;;;;;18.24;90.76;101066.94;6023431;28;20026;-63
2022/08/05 12:52:55;;;;;;;6.13;3.33;;;;;;;18.24;91.05;101066.94;6020909;28;20038;-63
2022/08/05 12:55:50;;;;;;;4.88;3.30;;;;;;;18.33;91.32;101071.19;6023571;28;20348;-64
2022/08/05 12:59:12;;;;;;;5.33;3.20;;;;;;;18.34;90.02;101065.63;6019429;28;20030;-63
2022/08/05 13:02:09;;;;;;;4.38;2.85;;;;;;;18.33;88.64;101068.50;6009241;28;20109;-63
2022/08/05 13:05:05;;;;;;;6.75;2.50;;;;;;;18.49;87.93;101073.69;6016555;28;20030;-62
2022/08/05 13:08:03;;;;;;;6.07;2.50;;;;;;;18.71;87.74;101083.47;6023212;28;20049;-63
2022/08/05 13:11:01;;;;;;;4.15;2.60;;;;;;;18.77;86.25;101085.41;6022393;28;20042;-63
2022/08/05 13:13:57;;;;;;;3.47;2.10;;;;;;;18.50;85.14;101079.91;6017724;28;20075;-62
2022/08/05 13:16:56;;;;;;;4.43;1.95;;;;;;;18.67;84.48;101081.34;6019588;28;20084;-62
2022/08/05 13:19:57;;;;;;;5.40;1.90;;;;;;;18.71;83.07;101088.00;6020138;28;20041;-62
2022/08/05 13:22:55;;;;;;;3.15;1.60;;;;;;;18.74;84.05;101091.16;6015918;28;20493;-63
2022/08/05 13:25:50;;;;;;;4.15;2.33;;;;;;;18.76;82.74;101101.69;6019103;28;20034;-63
2022/08/05 13:28:45;;;;;;;5.22;1.80;;;;;;;18.75;83.72;101087.41;6021542;28;20069;-63
2022/08/05 13:31:43;;;;;;;2.57;1.50;;;;;;;19.50;82.58;101090.47;6021110;28;20085;-62
2022/08/05 13:34:38;;;;;;;3.53;1.30;;;;;;;20.20;79.46;101082.22;6018594;28;20042;-63
2022/08/05 13:37:33;;;;;;;4.07;1.60;;;;;;;20.70;76.51;101075.63;6022757;28;20053;-63
2022/08/05 13:40:29;;;;;;;3.22;1.30;;;;;;;21.02;75.59;101082.13;6013445;28;20564;-64
2022/08/05 13:43:24;;;;;;;2.70;1.60;;;;;;;20.81;72.71;101067.97;6021916;28;20042;-63